Time;durP1;ratioP1;P1;durP2;ratioP2;P2;SDS_P1;SDS_P2;PMS_P1;PMS_P2;Temp;Humidity;BMP_temperature;BMP_pressure;BME280_temperature;BME280_humidity;BME280_pressure;Samples;Min_cycle;Max_cycle;Signal;HPM_P1;HPM_P2
2022/01/22 00:01:49;;;;;;;8.15;6.15;;;6.30;99.90;;;;;;5136437;27;20365;-69
2022/01/22 00:04:15;;;;;;;12.35;6.30;;;6.20;99.90;;;;;;5133460;27;20113;-68
2022/01/22 00:06:41;;;;;;;12.65;6.13;;;6.30;99.90;;;;;;5135482;27;20023;-69
2022/01/22 00:09:08;;;;;;;11.82;7.20;;;6.30;99.90;;;;;;5133532;27;20039;-70
2022/01/22 00:11:39;;;;;;;10.57;6.20;;;6.30;99.90;;;;;;5135347;27;20019;-70
2022/01/22 00:14:23;;;;;;;;;;;6.20;99.90;;;;;;5135735;27;20373;-69
2022/01/22 00:16:54;;;;;;;13.55;6.60;;;6.20;99.90;;;;;;5135345;27;20273;-68
2022/01/22 00:19:20;;;;;;;9.52;6.63;;;6.20;99.90;;;;;;5133542;27;20034;-68
2022/01/22 00:21:46;;;;;;;7.53;6.47;;;6.10;99.90;;;;;;5134096;27;20376;-68
2022/01/22 00:24:13;;;;;;;14.07;7.40;;;6.20;99.90;;;;;;5134038;27;20108;-68
2022/01/22 00:26:40;;;;;;;12.25;7.40;;;6.10;99.90;;;;;;5134975;27;20520;-68
2022/01/22 00:29:06;;;;;;;8.68;6.30;;;6.20;99.90;;;;;;5134644;27;20372;-67
2022/01/22 00:31:31;;;;;;;12.70;7.93;;;6.20;99.90;;;;;;5135068;27;20023;-72
2022/01/22 00:33:57;;;;;;;11.48;7.53;;;6.10;99.90;;;;;;5133488;27;20023;-67
2022/01/22 00:36:23;;;;;;;14.40;8.45;;;6.10;99.90;;;;;;5133021;27;20061;-67
2022/01/22 00:38:48;;;;;;;8.30;6.72;;;6.10;99.90;;;;;;5133448;27;20062;-70
2022/01/22 00:41:14;;;;;;;10.10;6.03;;;6.20;99.90;;;;;;5133146;27;20027;-69
2022/01/22 00:43:40;;;;;;;11.70;6.30;;;6.20;99.90;;;;;;5133810;27;20027;-69
2022/01/22 00:46:05;;;;;;;9.10;6.30;;;6.20;99.90;;;;;;5131583;27;20413;-69
2022/01/22 00:48:31;;;;;;;7.55;5.03;;;6.20;99.90;;;;;;5132272;27;20211;-68
2022/01/22 00:50:57;;;;;;;10.13;6.28;;;6.20;99.90;;;;;;5132338;27;20392;-68
2022/01/22 00:53:24;;;;;;;9.05;5.28;;;6.20;99.90;;;;;;5131827;27;20031;-68
2022/01/22 00:55:50;;;;;;;9.10;5.65;;;6.20;99.90;;;;;;5116348;27;20448;-68
2022/01/22 00:58:15;;;;;;;7.97;5.28;;;6.20;99.90;;;;;;5135231;27;20035;-67
2022/01/22 01:00:41;;;;;;;16.35;5.57;;;6.30;99.90;;;;;;5116958;27;20050;-67
2022/01/22 01:03:07;;;;;;;6.20;4.68;;;6.20;99.90;;;;;;5132764;27;20382;-69
2022/01/22 01:05:33;;;;;;;5.25;4.35;;;6.20;99.90;;;;;;5132178;27;20426;-67
2022/01/22 01:07:58;;;;;;;9.75;5.35;;;6.20;99.90;;;;;;5131778;27;20066;-69
2022/01/22 01:10:24;;;;;;;12.55;5.03;;;6.20;99.90;;;;;;5131218;27;20035;-67
2022/01/22 01:12:51;;;;;;;6.40;4.63;;;6.20;99.90;;;;;;5131742;27;20068;-69
2022/01/22 01:34:22;;;;;;;6.28;3.25;;;6.10;99.90;;;;;;5133906;27;20026;-67
2022/01/22 01:36:48;;;;;;;10.50;3.08;;;6.10;99.90;;;;;;5134140;27;20019;-68
2022/01/22 01:39:22;;;;;;;7.15;3.80;;;6.10;99.90;;;;;;5133688;27;20035;-67
2022/01/22 01:42:12;;;;;;;5.55;3.53;;;6.20;99.90;;;;;;5133503;27;20027;-67
2022/01/22 01:44:39;;;;;;;8.23;3.42;;;6.20;99.90;;;;;;5132439;27;20031;-67
2022/01/22 01:47:10;;;;;;;8.07;3.45;;;6.10;99.90;;;;;;5131757;28;20027;-68
2022/01/22 01:49:36;;;;;;;8.35;2.78;;;6.10;99.90;;;;;;5132101;28;20042;-67
2022/01/22 01:52:05;;;;;;;8.25;3.45;;;6.10;99.90;;;;;;5133261;28;20019;-70
2022/01/22 01:57:38;;;;;;;4.97;3.20;;;6.10;99.90;;;;;;5132848;27;20039;-67
2022/01/22 02:00:10;;;;;;;9.60;2.85;;;6.10;99.90;;;;;;5133564;27;20118;-68
2022/01/22 02:02:39;;;;;;;;;;;6.10;99.90;;;;;;5132581;28;20473;-68
2022/01/22 02:05:05;;;;;;;4.68;2.67;;;6.10;99.90;;;;;;5132463;27;19903;-74
2022/01/22 02:07:31;;;;;;;4.43;3.22;;;6.10;99.90;;;;;;5133458;27;20468;-67
2022/01/22 02:09:59;;;;;;;6.53;3.13;;;6.10;99.90;;;;;;5133224;27;20050;-68
2022/01/22 02:25:55;;;;;;;5.35;3.30;;;6.00;99.90;;;;;;5134297;27;20168;-66
2022/01/22 02:28:21;;;;;;;7.60;3.20;;;6.00;99.90;;;;;;5137573;27;20084;-67
2022/01/22 02:30:50;;;;;;;4.32;2.90;;;5.90;99.90;;;;;;5138323;27;20502;-71
2022/01/22 02:33:30;;;;;;;5.50;2.63;;;5.90;99.90;;;;;;5136694;27;20376;-67
2022/01/22 02:36:07;;;;;;;5.15;2.40;;;6.00;99.90;;;;;;5137465;27;20090;-68
2022/01/22 02:38:41;;;;;;;4.90;3.50;;;5.90;99.90;;;;;;5137650;27;20353;-67
2022/01/22 02:41:13;;;;;;;3.75;2.60;;;5.90;99.90;;;;;;5136916;27;20023;-68
2022/01/22 02:43:39;;;;;;;5.82;2.15;;;5.90;99.90;;;;;;5136224;27;20023;-69
2022/01/22 02:46:04;;;;;;;4.38;3.13;;;5.80;99.90;;;;;;5136807;27;20034;-68
2022/01/22 02:48:30;;;;;;;4.82;4.28;;;6.00;99.90;;;;;;5136135;27;20058;-67
2022/01/22 02:50:56;;;;;;;6.75;2.70;;;6.00;99.90;;;;;;5138487;27;20498;-68
2022/01/22 02:53:21;;;;;;;3.83;2.42;;;6.00;99.90;;;;;;5136134;27;20027;-69
2022/01/22 02:55:47;;;;;;;4.18;2.63;;;5.90;99.90;;;;;;5137305;27;20476;-67
2022/01/22 02:58:14;;;;;;;4.30;2.47;;;5.90;99.90;;;;;;5136363;27;20427;-68
2022/01/22 03:00:41;;;;;;;5.75;3.22;;;5.90;99.90;;;;;;5137069;27;20032;-68
2022/01/22 03:03:07;;;;;;;4.10;2.60;;;5.90;99.90;;;;;;5137019;27;20023;-66
2022/01/22 03:05:34;;;;;;;3.95;2.78;;;5.90;99.90;;;;;;5137193;27;20019;-66
2022/01/22 03:08:05;;;;;;;3.97;2.78;;;6.00;99.90;;;;;;5137097;27;20052;-68
2022/01/22 03:10:31;;;;;;;6.57;3.00;;;6.00;99.90;;;;;;5136874;27;20026;-70
2022/01/22 03:18:07;;;;;;;4.03;2.60;;;6.00;99.90;;;;;;5137385;27;20110;-67
2022/01/22 03:31:47;;;;;;;4.65;2.83;;;5.80;99.90;;;;;;5127006;27;20043;-69
2022/01/22 03:34:14;;;;;;;7.93;2.70;;;5.90;99.90;;;;;;5134896;27;20126;-70
2022/01/22 03:36:40;;;;;;;7.53;2.95;;;5.90;99.90;;;;;;5136368;27;20494;-69
2022/01/22 03:39:08;;;;;;;7.18;2.95;;;5.90;99.90;;;;;;5135527;27;20035;-67
2022/01/22 03:41:35;;;;;;;3.15;2.65;;;5.80;99.90;;;;;;5134308;27;20038;-67
2022/01/22 03:44:01;;;;;;;8.93;2.70;;;5.90;99.90;;;;;;5135004;27;20047;-67
2022/01/22 03:46:26;;;;;;;5.60;3.17;;;6.00;99.90;;;;;;5135404;27;20404;-68
2022/01/22 03:48:52;;;;;;;5.07;2.58;;;5.90;99.90;;;;;;5134923;27;20151;-67
2022/01/22 03:51:18;;;;;;;9.77;3.53;;;5.90;99.90;;;;;;5134181;27;20027;-68
2022/01/22 03:53:44;;;;;;;3.38;2.40;;;5.80;99.90;;;;;;5135356;27;20031;-68
2022/01/22 03:56:11;;;;;;;4.18;2.28;;;5.90;99.90;;;;;;5134630;27;20027;-70
2022/01/22 03:58:42;;;;;;;5.75;2.38;;;5.90;99.90;;;;;;5135203;27;20034;-66
2022/01/22 04:03:41;;;;;;;2.78;2.40;;;5.80;99.90;;;;;;5135919;27;20468;-67
2022/01/22 04:08:47;;;;;;;5.00;2.25;;;5.80;99.90;;;;;;5136186;27;20035;-68
2022/01/22 04:11:15;;;;;;;3.00;2.10;;;5.90;99.90;;;;;;5133994;27;20023;-71
2022/01/22 04:13:42;;;;;;;3.45;2.55;;;6.00;99.90;;;;;;5134210;27;20027;-67
2022/01/22 04:16:09;;;;;;;4.57;2.40;;;5.90;99.90;;;;;;5135738;27;20027;-67
2022/01/22 04:26:59;;;;;;;2.70;2.40;;;5.90;99.90;;;;;;5135097;27;20038;-68
2022/01/22 04:29:27;;;;;;;4.40;2.10;;;5.80;99.90;;;;;;5134848;27;20050;-68
2022/01/22 04:31:53;;;;;;;3.40;2.05;;;5.80;99.90;;;;;;5135217;27;20106;-67
2022/01/22 04:34:19;;;;;;;2.42;2.10;;;5.90;99.90;;;;;;5134597;27;20076;-67
2022/01/22 04:36:44;;;;;;;3.15;2.58;;;5.90;99.90;;;;;;5135265;27;20023;-67
2022/01/22 04:39:10;;;;;;;3.25;2.33;;;5.80;99.90;;;;;;5135075;27;20027;-66
2022/01/22 04:41:37;;;;;;;4.30;2.15;;;5.80;99.90;;;;;;5135082;27;20031;-69
2022/01/22 04:44:04;;;;;;;9.10;2.30;;;5.80;99.90;;;;;;5135939;27;20031;-67
2022/01/22 04:52:28;;;;;;;4.55;2.75;;;5.80;99.90;;;;;;5135492;27;20052;-68
2022/01/22 04:54:59;;;;;;;5.25;2.50;;;5.80;99.90;;;;;;5135843;27;20114;-68
2022/01/22 04:57:30;;;;;;;5.57;2.08;;;5.80;99.90;;;;;;5135374;27;20038;-69
2022/01/22 04:59:56;;;;;;;3.13;2.53;;;5.90;99.90;;;;;;5137198;27;20039;-69
2022/01/22 05:02:22;;;;;;;3.05;2.10;;;5.90;99.90;;;;;;5137193;27;20023;-67
2022/01/22 05:04:47;;;;;;;3.55;2.38;;;5.90;99.90;;;;;;5135985;27;20437;-69
2022/01/22 05:07:13;;;;;;;2.83;2.10;;;6.00;99.90;;;;;;5134967;27;20068;-67
2022/01/22 05:09:39;;;;;;;3.35;1.85;;;6.00;99.90;;;;;;5134018;27;20034;-68
2022/01/22 05:12:06;;;;;;;3.33;1.90;;;6.00;99.90;;;;;;5133995;27;20030;-67
2022/01/22 05:14:32;;;;;;;3.35;2.63;;;5.90;99.90;;;;;;5133713;27;20026;-67
2022/01/22 05:17:00;;;;;;;3.83;2.03;;;6.00;99.90;;;;;;5133114;27;20380;-71
2022/01/22 05:22:25;;;;;;;2.88;2.03;;;6.00;99.90;;;;;;5134594;27;20065;-67
2022/01/22 05:24:55;;;;;;;4.82;2.53;;;6.00;99.90;;;;;;5132506;27;20090;-67
2022/01/22 05:27:48;;;;;;;4.07;2.40;;;6.10;99.90;;;;;;5133018;27;20115;-69
2022/01/22 05:33:12;;;;;;;3.22;1.90;;;6.10;99.90;;;;;;5134309;27;20033;-70
2022/01/22 05:38:26;;;;;;;6.20;2.88;;;6.10;99.90;;;;;;5132231;27;20091;-70
2022/01/22 05:40:52;;;;;;;2.75;2.10;;;6.10;99.90;;;;;;5132411;27;20034;-68
2022/01/22 05:43:18;;;;;;;3.20;2.42;;;6.10;99.90;;;;;;5133318;27;20027;-72
2022/01/22 05:45:43;;;;;;;2.40;2.15;;;6.00;99.90;;;;;;5134077;27;20033;-69
2022/01/22 05:48:09;;;;;;;2.85;2.53;;;6.00;99.90;;;;;;5132571;27;20483;-71
2022/01/22 05:50:57;;;;;;;3.50;2.00;;;5.90;99.90;;;;;;5133008;28;20023;-67
2022/01/22 06:01:07;;;;;;;3.80;2.28;;;6.10;99.90;;;;;;5135266;27;20387;-67
2022/01/22 06:03:32;;;;;;;5.18;2.72;;;6.00;99.90;;;;;;5138170;27;20027;-68
2022/01/22 06:05:59;;;;;;;3.90;2.83;;;6.10;99.90;;;;;;5137970;27;20023;-67
2022/01/22 06:08:30;;;;;;;3.85;2.65;;;6.10;99.90;;;;;;5137671;27;20387;-69
2022/01/22 06:10:58;;;;;;;4.25;2.40;;;6.10;99.90;;;;;;5137348;27;20031;-67
2022/01/22 06:13:30;;;;;;;3.38;2.42;;;6.10;99.90;;;;;;5137478;27;20030;-67
2022/01/22 06:15:56;;;;;;;2.60;2.40;;;6.10;99.90;;;;;;5136887;27;20449;-73
2022/01/22 06:18:22;;;;;;;3.30;2.90;;;6.20;99.90;;;;;;5137510;27;20027;-67
2022/01/22 06:20:48;;;;;;;4.40;3.13;;;6.10;99.90;;;;;;5136980;27;20023;-72
2022/01/22 06:23:14;;;;;;;6.25;3.17;;;6.10;99.90;;;;;;5135954;27;20400;-67
2022/01/22 06:25:40;;;;;;;3.90;3.20;;;6.10;99.90;;;;;;5136143;27;20098;-68
2022/01/22 06:28:05;;;;;;;5.40;3.33;;;6.10;99.90;;;;;;5137763;27;20023;-69
2022/01/22 06:30:32;;;;;;;5.70;3.35;;;6.10;99.90;;;;;;5138415;27;20063;-68
2022/01/22 06:32:58;;;;;;;4.38;3.45;;;6.20;99.90;;;;;;5139825;27;20031;-69
2022/01/22 06:35:23;;;;;;;4.68;3.08;;;6.10;99.90;;;;;;5137779;27;20408;-68
2022/01/22 06:37:51;;;;;;;4.20;3.45;;;6.20;99.90;;;;;;5136285;27;20023;-68
2022/01/22 06:42:42;;;;;;;3.83;3.40;;;6.10;99.90;;;;;;5136755;27;20380;-67
2022/01/22 06:45:08;;;;;;;4.15;3.30;;;6.20;99.90;;;;;;5137201;27;20023;-68
2022/01/22 06:47:35;;;;;;;4.28;3.75;;;6.20;99.90;;;;;;5135462;27;20027;-69
2022/01/22 06:50:00;;;;;;;3.53;3.13;;;6.20;99.90;;;;;;5137084;27;20373;-69
2022/01/22 06:52:27;;;;;;;3.65;2.97;;;6.20;99.90;;;;;;5135385;27;20031;-69
2022/01/22 06:54:52;;;;;;;4.10;3.72;;;6.20;99.90;;;;;;5137091;27;20096;-68
2022/01/22 06:57:18;;;;;;;5.07;3.72;;;6.10;99.90;;;;;;5136833;27;20174;-69
2022/01/22 06:59:44;;;;;;;3.67;3.20;;;6.10;99.90;;;;;;5135413;27;20031;-67
2022/01/22 07:02:10;;;;;;;5.30;4.18;;;6.10;99.90;;;;;;5136838;27;20023;-67
2022/01/22 07:04:37;;;;;;;6.40;4.00;;;6.10;99.90;;;;;;5136226;27;20021;-68
2022/01/22 07:07:12;;;;;;;6.45;4.50;;;6.10;99.90;;;;;;5136803;27;20024;-68
2022/01/22 07:09:38;;;;;;;6.07;4.63;;;6.10;99.90;;;;;;5137216;27;20035;-67
2022/01/22 07:12:08;;;;;;;5.55;4.40;;;6.20;99.90;;;;;;5135236;27;20076;-68
2022/01/22 07:14:34;;;;;;;6.65;4.68;;;6.20;99.90;;;;;;5134863;27;20059;-71
2022/01/22 07:17:00;;;;;;;5.63;4.72;;;6.10;99.90;;;;;;5135748;27;20051;-69
2022/01/22 07:19:26;;;;;;;4.63;4.20;;;6.10;99.90;;;;;;5134547;27;20032;-66
2022/01/22 07:22:01;;;;;;;5.75;4.80;;;6.20;99.90;;;;;;5136372;27;20027;-67
2022/01/22 07:24:32;;;;;;;5.35;4.85;;;6.30;99.90;;;;;;5134218;27;20126;-68
2022/01/22 07:26:58;;;;;;;5.30;4.70;;;6.30;99.90;;;;;;5136068;27;20032;-69
2022/01/22 07:29:24;;;;;;;5.50;4.90;;;6.30;99.90;;;;;;5136250;27;20070;-73
2022/01/22 07:31:51;;;;;;;8.18;5.32;;;6.20;99.90;;;;;;5135479;27;20028;-68
2022/01/22 07:34:17;;;;;;;5.10;4.35;;;6.30;99.90;;;;;;5136879;27;20023;-66
2022/01/22 07:36:42;;;;;;;8.65;5.30;;;6.20;99.90;;;;;;5135803;27;20030;-68
2022/01/22 07:39:08;;;;;;;8.27;5.72;;;6.10;99.90;;;;;;5136368;27;20027;-67
2022/01/22 07:41:34;;;;;;;6.75;4.28;;;6.00;99.90;;;;;;5135765;27;20464;-68
2022/01/22 07:43:59;;;;;;;6.30;5.65;;;6.00;99.90;;;;;;5134699;27;20035;-67
2022/01/22 07:46:25;;;;;;;5.40;4.50;;;6.20;99.90;;;;;;5134627;27;20027;-69
2022/01/22 07:48:51;;;;;;;5.75;5.25;;;6.30;99.90;;;;;;5134894;27;20031;-68
2022/01/22 07:51:17;;;;;;;5.25;4.63;;;6.30;99.90;;;;;;5135935;27;20034;-68
2022/01/22 07:53:46;;;;;;;5.07;4.32;;;6.30;99.90;;;;;;5135822;27;20031;-66
2022/01/22 07:56:12;;;;;;;7.07;4.88;;;6.30;99.90;;;;;;5138298;27;20500;-68
2022/01/22 07:58:38;;;;;;;5.05;4.55;;;6.30;99.90;;;;;;5134564;27;20066;-68
2022/01/22 08:01:04;;;;;;;5.47;4.97;;;6.30;99.90;;;;;;5134243;27;20023;-69
2022/01/22 08:03:30;;;;;;;7.38;4.78;;;6.30;99.90;;;;;;5134951;27;20023;-68
2022/01/22 08:05:56;;;;;;;6.07;4.97;;;6.40;99.90;;;;;;5134257;27;20034;-67
2022/01/22 08:08:21;;;;;;;6.32;5.25;;;6.30;99.90;;;;;;5135408;27;20035;-68
2022/01/22 08:10:50;;;;;;;6.10;4.45;;;6.30;99.90;;;;;;5133821;27;20027;-69
2022/01/22 08:13:24;;;;;;;7.50;6.20;;;6.30;99.90;;;;;;5134014;27;20059;-70
2022/01/22 08:15:50;;;;;;;5.15;4.65;;;6.30;99.90;;;;;;5133487;27;20383;-66
2022/01/22 08:18:15;;;;;;;5.70;4.65;;;6.40;99.90;;;;;;5134483;27;20122;-66
2022/01/22 08:20:41;;;;;;;4.78;4.38;;;6.40;99.90;;;;;;5136104;27;20035;-66
2022/01/22 08:23:06;;;;;;;5.55;4.72;;;6.40;99.90;;;;;;5134345;27;20063;-68
2022/01/22 08:25:33;;;;;;;5.32;4.82;;;6.40;99.90;;;;;;5136110;27;20114;-68
2022/01/22 08:30:33;;;;;;;8.85;6.00;;;6.40;99.90;;;;;;5135199;27;20065;-68
2022/01/22 08:35:54;;;;;;;6.07;5.13;;;6.30;99.90;;;;;;5134926;27;20083;-66
2022/01/22 08:38:25;;;;;;;6.55;5.50;;;6.40;99.90;;;;;;5136468;27;20434;-69
2022/01/22 08:40:51;;;;;;;6.03;4.95;;;6.40;99.90;;;;;;5135519;27;20035;-67
2022/01/22 08:43:17;;;;;;;5.60;4.82;;;6.40;99.90;;;;;;5135341;27;20027;-68
2022/01/22 08:45:44;;;;;;;7.50;5.30;;;6.40;99.90;;;;;;5133167;27;20114;-67
2022/01/22 08:48:09;;;;;;;7.43;6.15;;;6.40;99.90;;;;;;5135000;27;20413;-69
2022/01/22 08:50:35;;;;;;;7.03;5.03;;;6.50;99.90;;;;;;5134877;27;20170;-68
2022/01/22 08:53:02;;;;;;;5.70;5.20;;;6.50;99.90;;;;;;5134343;27;20446;-68
2022/01/22 08:55:28;;;;;;;5.95;5.35;;;6.50;99.90;;;;;;5134667;27;20055;-67
2022/01/22 08:57:54;;;;;;;7.35;6.15;;;6.50;99.90;;;;;;5134211;27;20076;-69
2022/01/22 09:00:21;;;;;;;5.88;5.28;;;6.50;99.90;;;;;;5134784;27;20019;-66
2022/01/22 09:02:48;;;;;;;7.30;5.57;;;6.50;99.90;;;;;;5134622;27;20023;-67
2022/01/22 09:05:19;;;;;;;7.13;5.57;;;6.50;99.90;;;;;;5134454;27;20499;-66
2022/01/22 09:07:46;;;;;;;6.40;5.50;;;6.60;99.90;;;;;;5134245;27;20414;-68
2022/01/22 09:10:12;;;;;;;6.47;5.35;;;6.70;99.90;;;;;;5134535;27;20092;-68
2022/01/22 09:12:38;;;;;;;6.07;5.13;;;6.60;99.90;;;;;;5132516;27;20038;-70
2022/01/22 09:15:04;;;;;;;5.97;5.32;;;6.50;99.90;;;;;;5134648;27;20372;-68
2022/01/22 09:17:30;;;;;;;7.47;5.60;;;6.50;99.90;;;;;;5132852;27;20023;-72
2022/01/22 09:19:58;;;;;;;8.05;6.30;;;6.40;99.90;;;;;;5133857;27;20027;-68
2022/01/22 09:22:24;;;;;;;6.38;4.88;;;6.50;99.90;;;;;;5134149;27;20425;-67
2022/01/22 09:24:51;;;;;;;7.70;5.88;;;6.50;99.90;;;;;;5133733;27;20313;-68
2022/01/22 09:27:17;;;;;;;5.95;5.35;;;6.50;99.90;;;;;;5134214;27;20062;-69
2022/01/22 09:29:44;;;;;;;8.60;6.75;;;6.60;99.90;;;;;;5133558;27;20055;-68
2022/01/22 09:32:09;;;;;;;6.60;5.90;;;6.70;99.90;;;;;;5134223;27;20054;-68
2022/01/22 09:34:35;;;;;;;7.28;5.88;;;6.60;99.90;;;;;;5133287;27;20070;-68
2022/01/22 09:37:01;;;;;;;7.50;5.95;;;6.60;99.90;;;;;;5133216;27;20031;-69
2022/01/22 09:39:27;;;;;;;7.50;6.40;;;6.60;99.90;;;;;;5133908;27;20473;-72
2022/01/22 09:41:52;;;;;;;7.93;6.45;;;6.60;99.90;;;;;;5132474;27;20053;-71
2022/01/22 09:44:18;;;;;;;8.23;6.57;;;6.70;99.90;;;;;;5135036;27;20076;-71
2022/01/22 09:46:46;;;;;;;6.43;5.68;;;6.80;99.90;;;;;;5135033;27;20027;-68
2022/01/22 09:49:12;;;;;;;7.85;6.78;;;6.80;99.90;;;;;;5134580;27;20038;-73
2022/01/22 09:51:39;;;;;;;7.68;6.50;;;6.80;99.90;;;;;;5136778;27;20039;-69
2022/01/22 09:54:10;;;;;;;7.90;5.85;;;6.80;99.90;;;;;;5136413;28;20035;-68
2022/01/22 09:56:37;;;;;;;7.28;5.50;;;6.90;99.90;;;;;;5135644;27;20046;-70
2022/01/22 09:59:03;;;;;;;8.55;6.10;;;6.80;99.90;;;;;;5116128;28;20412;-70
2022/01/22 10:01:34;;;;;;;8.98;7.40;;;6.80;99.90;;;;;;5133590;27;20015;-71
2022/01/22 10:04:03;;;;;;;9.35;6.75;;;6.90;99.90;;;;;;5133967;28;20103;-69
2022/01/22 10:06:44;;;;;;;13.43;7.43;;;7.00;99.90;;;;;;5133638;27;20035;-68
2022/01/22 10:09:14;;;;;;;10.27;7.22;;;7.10;99.90;;;;;;5132557;28;20041;-69
2022/01/22 10:11:41;;;;;;;41.95;8.73;;;7.10;99.90;;;;;;5133181;27;20076;-67
2022/01/22 10:14:07;;;;;;;12.65;7.82;;;7.20;99.90;;;;;;5133551;27;20027;-70
2022/01/22 10:16:39;;;;;;;10.75;8.07;;;7.20;99.90;;;;;;5133877;27;20059;-68
2022/01/22 10:19:24;;;;;;;10.73;6.93;;;7.20;99.90;;;;;;5133709;27;20051;-68
2022/01/22 10:22:02;;;;;;;8.43;6.60;;;7.20;99.90;;;;;;5132029;28;20062;-69
2022/01/22 10:27:32;;;;;;;8.60;6.72;;;7.40;99.90;;;;;;5133551;27;20118;-67
2022/01/22 10:30:06;;;;;;;8.43;7.28;;;7.40;99.90;;;;;;5131624;28;20124;-69
2022/01/22 10:35:15;;;;;;;9.35;7.03;;;7.50;99.90;;;;;;5132490;27;20465;-67
2022/01/22 10:37:42;;;;;;;10.55;8.02;;;7.50;99.90;;;;;;5111952;28;20372;-70
2022/01/22 10:40:19;;;;;;;9.18;7.05;;;7.60;99.90;;;;;;5111204;28;20070;-69
2022/01/22 10:42:45;;;;;;;9.82;6.75;;;7.50;99.90;;;;;;5128869;28;20080;-68
2022/01/22 10:45:19;;;;;;;8.55;6.80;;;7.40;99.90;;;;;;5132583;28;20080;-69
2022/01/22 10:47:45;;;;;;;9.05;6.75;;;7.40;99.90;;;;;;5125250;27;20019;-68
2022/01/22 10:50:19;;;;;;;11.25;7.70;;;7.50;99.90;;;;;;5128520;27;20031;-69
2022/01/22 10:52:53;;;;;;;11.88;7.90;;;7.50;99.90;;;;;;5122466;27;20020;-68
2022/01/22 10:55:19;;;;;;;12.10;7.75;;;7.50;99.90;;;;;;5120097;27;20163;-70
2022/01/22 10:58:06;;;;;;;11.63;8.25;;;7.50;99.90;;;;;;5117894;27;20027;-71
2022/01/22 11:00:31;;;;;;;11.40;7.43;;;7.50;99.90;;;;;;5126121;27;20036;-68
2022/01/22 11:02:57;;;;;;;8.23;6.80;;;7.50;99.90;;;;;;5119066;27;20032;-68
2022/01/22 11:05:38;;;;;;;14.40;8.30;;;7.50;99.90;;;;;;5126823;27;20031;-71
2022/01/22 11:08:09;;;;;;;10.90;8.80;;;7.60;99.90;;;;;;5128735;27;20023;-71
2022/01/22 11:10:35;;;;;;;9.55;7.45;;;7.40;99.90;;;;;;5125565;27;20410;-71
2022/01/22 11:13:00;;;;;;;14.40;9.35;;;7.40;99.90;;;;;;5129705;27;20023;-71
2022/01/22 11:15:27;;;;;;;16.60;9.05;;;7.40;99.90;;;;;;5128983;27;20050;-71
2022/01/22 11:17:54;;;;;;;11.13;8.30;;;7.30;99.90;;;;;;5122302;27;20024;-69
2022/01/22 11:20:21;;;;;;;14.15;8.68;;;7.30;99.90;;;;;;5123138;27;20039;-68
2022/01/22 11:22:48;;;;;;;12.52;7.30;;;7.40;99.90;;;;;;5135649;27;20544;-68
2022/01/22 11:25:14;;;;;;;12.50;8.93;;;7.50;99.90;;;;;;5137972;27;20499;-68
2022/01/22 11:27:40;;;;;;;11.70;8.48;;;7.50;99.90;;;;;;5136748;27;20035;-69
2022/01/22 11:30:09;;;;;;;12.05;8.23;;;7.50;99.90;;;;;;5136644;27;20548;-69
2022/01/22 11:32:52;;;;;;;11.73;9.45;;;7.40;99.90;;;;;;5129444;27;20026;-69
2022/01/22 11:35:32;;;;;;;14.23;9.63;;;7.50;99.90;;;;;;5125515;27;20099;-69
2022/01/22 11:38:15;;;;;;;10.75;7.78;;;7.60;99.90;;;;;;5131947;27;20619;-70
2022/01/22 11:40:41;;;;;;;11.48;8.38;;;7.60;99.90;;;;;;5133457;27;20059;-71
2022/01/22 11:43:11;;;;;;;10.85;7.70;;;7.70;99.90;;;;;;5130514;27;20469;-70
2022/01/22 11:45:56;;;;;;;10.70;7.78;;;7.70;99.90;;;;;;5131878;27;20030;-69
2022/01/22 11:48:30;;;;;;;12.90;7.10;;;7.70;99.90;;;;;;5130216;27;20076;-67
2022/01/22 11:51:23;;;;;;;13.45;6.80;;;8.70;99.90;;;;;;5129272;27;20027;-70
2022/01/22 11:53:59;;;;;;;10.73;7.10;;;9.10;99.90;;;;;;5120512;27;20507;-77
2022/01/22 11:56:29;;;;;;;11.50;7.40;;;9.80;99.90;;;;;;5116181;27;20054;-69
2022/01/22 11:59:01;;;;;;;9.60;6.35;;;10.30;99.90;;;;;;5118632;27;20038;-74
2022/01/22 12:01:56;;;;;;;8.02;6.75;;;9.70;99.90;;;;;;5123766;27;20040;-72
2022/01/22 12:04:38;;;;;;;7.20;4.97;;;9.20;99.90;;;;;;5125156;27;20043;-74
2022/01/22 12:07:04;;;;;;;7.40;4.80;;;8.70;99.90;;;;;;5135192;27;20031;-69
2022/01/22 12:09:32;;;;;;;7.30;4.25;;;8.70;99.90;;;;;;5136369;27;20364;-70
2022/01/22 12:15:04;;;;;;;9.48;4.25;;;8.40;99.90;;;;;;5114186;28;20393;-69
2022/01/22 12:17:53;;;;;;;5.88;4.20;;;8.40;99.90;;;;;;5132127;27;20075;-70
2022/01/22 12:23:12;;;;;;;8.77;3.90;;;8.40;99.90;;;;;;5134928;27;20083;-71
2022/01/22 12:25:38;;;;;;;5.65;3.83;;;8.40;99.90;;;;;;5134832;27;20038;-70
2022/01/22 12:28:06;;;;;;;7.45;4.15;;;8.20;99.90;;;;;;5135319;27;20027;-69
2022/01/22 12:30:34;;;;;;;7.90;4.30;;;7.90;99.90;;;;;;5134535;27;20373;-71
2022/01/22 12:33:01;;;;;;;8.45;3.95;;;8.00;99.90;;;;;;5135929;27;20572;-72
2022/01/22 12:35:35;;;;;;;10.60;4.45;;;7.90;99.90;;;;;;5136185;27;20162;-71
2022/01/22 12:38:51;;;;;;;5.50;4.15;;;7.90;99.90;;;;;;5137429;27;20027;-75
2022/01/22 12:44:07;;;;;;;6.68;3.78;;;7.80;99.90;;;;;;5124592;27;20028;-69
2022/01/22 12:46:34;;;;;;;6.10;3.47;;;7.90;99.90;;;;;;5121616;27;20023;-72
2022/01/22 12:49:03;;;;;;;10.15;3.92;;;8.70;99.90;;;;;;5092976;27;20052;-71
2022/01/22 12:51:30;;;;;;;6.38;4.03;;;8.40;99.90;;;;;;5131064;27;20032;-70
2022/01/22 12:53:56;;;;;;;5.05;3.50;;;8.10;99.90;;;;;;5123479;27;20453;-70
2022/01/22 12:59:06;;;;;;;6.13;3.47;;;8.10;99.90;;;;;;5122143;27;20121;-68
2022/01/22 13:01:34;;;;;;;5.95;4.55;;;8.00;99.90;;;;;;5118530;27;20024;-69
2022/01/22 13:04:04;;;;;;;7.10;5.18;;;7.90;99.90;;;;;;5118606;27;20042;-72
2022/01/22 13:06:46;;;;;;;9.68;3.92;;;7.80;99.90;;;;;;5127221;27;20034;-72
2022/01/22 13:09:13;;;;;;;5.20;3.75;;;7.70;99.90;;;;;;5126150;27;20023;-67
2022/01/22 13:11:46;;;;;;;5.07;3.97;;;7.80;99.90;;;;;;5116588;27;20034;-67
2022/01/22 13:14:26;;;;;;;6.55;4.00;;;7.80;99.90;;;;;;5127255;27;20071;-71
2022/01/22 13:16:54;;;;;;;5.38;3.72;;;7.90;99.90;;;;;;5116281;27;20065;-71
2022/01/22 13:19:22;;;;;;;6.70;4.45;;;7.80;99.90;;;;;;5149055;27;20038;-70
2022/01/22 13:21:53;;;;;;;4.03;3.63;;;7.80;99.90;;;;;;5149470;27;20122;-74
2022/01/22 13:24:25;;;;;;;6.13;4.00;;;7.80;99.90;;;;;;5135297;27;20050;-70
2022/01/22 13:27:00;;;;;;;;;;;7.90;99.90;;;;;;5114530;27;20031;-70
2022/01/22 13:29:34;;;;;;;4.97;3.70;;;7.90;99.90;;;;;;5107701;28;19904;-70
2022/01/22 13:32:17;;;;;;;6.32;4.03;;;7.80;99.90;;;;;;5109277;27;20054;-71
2022/01/22 13:35:56;;;;;;;5.78;4.25;;;7.90;99.90;;;;;;5107117;28;20110;-71
2022/01/22 13:49:33;;;;;;;6.85;4.40;;;8.00;99.90;;;;;;5111720;28;20630;-68
2022/01/22 13:52:05;;;;;;;6.50;4.38;;;8.00;99.90;;;;;;5105835;28;20027;-74
2022/01/22 13:54:37;;;;;;;5.63;4.43;;;7.90;99.90;;;;;;5106576;28;20032;-71
2022/01/22 13:57:06;;;;;;;5.78;4.03;;;7.90;99.90;;;;;;5106047;28;20445;-70
2022/01/22 13:59:39;;;;;;;5.38;4.30;;;7.90;99.90;;;;;;5109059;28;20035;-72
2022/01/22 14:04:54;;;;;;;8.10;4.40;;;8.00;99.90;;;;;;5110167;28;20032;-77
2022/01/22 14:07:25;;;;;;;6.90;4.60;;;8.00;99.90;;;;;;5117613;27;20032;-73
2022/01/22 14:09:52;;;;;;;6.43;4.55;;;8.10;99.90;;;;;;5117298;27;20039;-69
2022/01/22 14:12:18;;;;;;;5.78;3.92;;;8.10;99.90;;;;;;5122497;28;20039;-70
2022/01/22 14:14:56;;;;;;;15.63;4.22;;;8.10;99.90;;;;;;5129864;27;20349;-68
2022/01/22 14:17:25;;;;;;;7.72;3.70;;;8.10;99.90;;;;;;5118121;28;20038;-74
2022/01/22 14:20:03;;;;;;;5.05;4.13;;;8.10;99.90;;;;;;5118216;28;20078;-73
2022/01/22 14:22:52;;;;;;;7.82;4.13;;;8.10;99.90;;;;;;5122359;27;20020;-66
2022/01/22 14:25:18;;;;;;;7.32;4.53;;;8.10;99.90;;;;;;5122418;27;20050;-68
2022/01/22 14:27:54;;;;;;;7.78;4.72;;;7.90;99.90;;;;;;5122421;27;20031;-71
2022/01/22 14:30:32;;;;;;;14.07;4.93;;;7.90;99.90;;;;;;5118399;27;20380;-70
2022/01/22 14:32:58;;;;;;;9.65;3.97;;;8.00;99.90;;;;;;5122059;27;20023;-73
2022/01/22 14:35:24;;;;;;;8.02;4.57;;;7.90;99.90;;;;;;5125662;27;20475;-75
2022/01/22 14:37:53;;;;;;;8.52;4.85;;;8.00;99.90;;;;;;5120364;27;20029;-73
2022/01/22 14:45:59;;;;;;;6.18;3.15;;;8.10;99.90;;;;;;5116142;27;20070;-71
2022/01/22 14:48:26;;;;;;;6.85;3.25;;;8.10;99.90;;;;;;5116264;27;20032;-69
2022/01/22 14:50:55;;;;;;;15.45;3.25;;;8.20;99.90;;;;;;5111549;27;20032;-73
2022/01/22 14:53:22;;;;;;;3.58;3.00;;;8.20;99.90;;;;;;5116926;27;20041;-70
2022/01/22 14:55:59;;;;;;;4.50;2.92;;;8.10;99.90;;;;;;5121531;27;20055;-71
2022/01/22 14:58:25;;;;;;;6.75;3.05;;;8.10;99.90;;;;;;5120836;27;20027;-72
2022/01/22 15:00:51;;;;;;;3.63;2.53;;;8.10;99.90;;;;;;5118109;27;20038;-73
2022/01/22 15:03:16;;;;;;;12.68;3.05;;;8.10;99.90;;;;;;5110527;27;20358;-72
2022/01/22 15:05:43;;;;;;;4.75;2.72;;;8.10;99.90;;;;;;5113975;27;20047;-71
2022/01/22 15:08:09;;;;;;;4.88;2.58;;;7.90;99.90;;;;;;5118480;27;20041;-73
2022/01/22 15:10:35;;;;;;;6.68;2.40;;;8.00;99.90;;;;;;5122831;27;20864;-71
2022/01/22 15:13:01;;;;;;;11.80;3.00;;;8.00;99.90;;;;;;5128521;27;20111;-70
2022/01/22 15:15:32;;;;;;;3.88;3.28;;;8.00;99.90;;;;;;5124506;27;20082;-72
2022/01/22 15:18:08;;;;;;;3.15;2.30;;;7.90;99.90;;;;;;5124184;27;20027;-66